sensor_id;sensor_type;location;lat;lon;timestamp;P1;durP1;ratioP1;P2;durP2;ratioP2
70543;SDS011;58097;48.364;-1.224;2023-04-16T00:00:02;10.07;;;5.20;;
70543;SDS011;58097;48.364;-1.224;2023-04-16T00:02:28;7.85;;;3.97;;
70543;SDS011;58097;48.364;-1.224;2023-04-16T00:04:54;8.13;;;4.22;;
70543;SDS011;58097;48.364;-1.224;2023-04-16T00:07:19;9.02;;;4.32;;
70543;SDS011;58097;48.364;-1.224;2023-04-16T00:09:45;7.70;;;5.00;;
70543;SDS011;58097;48.364;-1.224;2023-04-16T00:12:10;9.32;;;4.85;;
70543;SDS011;58097;48.364;-1.224;2023-04-16T00:14:36;8.05;;;4.78;;
70543;SDS011;58097;48.364;-1.224;2023-04-16T00:17:01;6.68;;;4.82;;
70543;SDS011;58097;48.364;-1.224;2023-04-16T00:19:27;4.82;;;4.03;;
70543;SDS011;58097;48.364;-1.224;2023-04-16T00:21:52;6.70;;;4.63;;
70543;SDS011;58097;48.364;-1.224;2023-04-16T00:24:18;10.65;;;5.85;;
70543;SDS011;58097;48.364;-1.224;2023-04-16T00:26:43;10.43;;;5.25;;
70543;SDS011;58097;48.364;-1.224;2023-04-16T00:29:10;9.63;;;4.63;;
70543;SDS011;58097;48.364;-1.224;2023-04-16T00:31:36;11.93;;;5.53;;
70543;SDS011;58097;48.364;-1.224;2023-04-16T00:34:01;6.95;;;4.90;;
70543;SDS011;58097;48.364;-1.224;2023-04-16T00:36:27;11.35;;;4.60;;
70543;SDS011;58097;48.364;-1.224;2023-04-16T00:38:53;8.35;;;4.68;;
70543;SDS011;58097;48.364;-1.224;2023-04-16T00:41:19;14.43;;;5.10;;
70543;SDS011;58097;48.364;-1.224;2023-04-16T00:43:44;11.57;;;5.18;;
70543;SDS011;58097;48.364;-1.224;2023-04-16T00:46:10;12.32;;;4.72;;
70543;SDS011;58097;48.364;-1.224;2023-04-16T00:48:37;7.75;;;4.70;;
70543;SDS011;58097;48.364;-1.224;2023-04-16T00:51:04;6.28;;;4.28;;
70543;SDS011;58097;48.364;-1.224;2023-04-16T00:53:30;7.07;;;5.28;;
70543;SDS011;58097;48.364;-1.224;2023-04-16T00:55:55;11.35;;;5.65;;
70543;SDS011;58097;48.364;-1.224;2023-04-16T00:58:21;10.98;;;5.85;;
70543;SDS011;58097;48.364;-1.224;2023-04-16T01:00:47;15.57;;;6.90;;
70543;SDS011;58097;48.364;-1.224;2023-04-16T01:03:12;11.25;;;5.72;;
70543;SDS011;58097;48.364;-1.224;2023-04-16T01:05:38;10.93;;;6.00;;
70543;SDS011;58097;48.364;-1.224;2023-04-16T01:08:03;8.30;;;5.25;;
70543;SDS011;58097;48.364;-1.224;2023-04-16T01:10:29;11.60;;;5.20;;
70543;SDS011;58097;48.364;-1.224;2023-04-16T01:12:54;8.48;;;5.00;;
70543;SDS011;58097;48.364;-1.224;2023-04-16T01:15:20;11.27;;;5.57;;
70543;SDS011;58097;48.364;-1.224;2023-04-16T01:17:45;9.18;;;5.25;;
70543;SDS011;58097;48.364;-1.224;2023-04-16T01:20:11;11.70;;;5.03;;
70543;SDS011;58097;48.364;-1.224;2023-04-16T01:22:36;8.85;;;6.00;;
70543;SDS011;58097;48.364;-1.224;2023-04-16T01:25:01;12.38;;;6.47;;
70543;SDS011;58097;48.364;-1.224;2023-04-16T01:27:27;12.63;;;6.47;;
70543;SDS011;58097;48.364;-1.224;2023-04-16T01:29:52;9.38;;;5.57;;
70543;SDS011;58097;48.364;-1.224;2023-04-16T01:32:18;8.32;;;6.13;;
70543;SDS011;58097;48.364;-1.224;2023-04-16T01:34:43;9.57;;;6.00;;
70543;SDS011;58097;48.364;-1.224;2023-04-16T01:37:08;8.95;;;6.10;;
70543;SDS011;58097;48.364;-1.224;2023-04-16T01:39:35;11.35;;;7.82;;
70543;SDS011;58097;48.364;-1.224;2023-04-16T01:42:00;8.55;;;6.15;;
70543;SDS011;58097;48.364;-1.224;2023-04-16T01:44:26;8.48;;;5.65;;
70543;SDS011;58097;48.364;-1.224;2023-04-16T01:46:51;8.43;;;6.22;;
70543;SDS011;58097;48.364;-1.224;2023-04-16T01:49:17;10.20;;;6.35;;
70543;SDS011;58097;48.364;-1.224;2023-04-16T01:51:42;8.30;;;6.28;;
70543;SDS011;58097;48.364;-1.224;2023-04-16T01:54:08;8.75;;;5.55;;
70543;SDS011;58097;48.364;-1.224;2023-04-16T01:56:33;7.38;;;5.63;;
70543;SDS011;58097;48.364;-1.224;2023-04-16T01:58:59;12.43;;;6.32;;
70543;SDS011;58097;48.364;-1.224;2023-04-16T02:01:24;8.18;;;5.60;;
70543;SDS011;58097;48.364;-1.224;2023-04-16T02:03:50;8.20;;;6.20;;
70543;SDS011;58097;48.364;-1.224;2023-04-16T02:06:15;8.85;;;6.13;;
70543;SDS011;58097;48.364;-1.224;2023-04-16T02:08:40;9.35;;;5.82;;
70543;SDS011;58097;48.364;-1.224;2023-04-16T02:11:07;9.02;;;6.50;;
70543;SDS011;58097;48.364;-1.224;2023-04-16T02:13:32;9.85;;;6.82;;
70543;SDS011;58097;48.364;-1.224;2023-04-16T02:15:58;7.88;;;5.32;;
70543;SDS011;58097;48.364;-1.224;2023-04-16T02:18:23;9.30;;;5.95;;
70543;SDS011;58097;48.364;-1.224;2023-04-16T02:20:49;7.72;;;5.63;;
70543;SDS011;58097;48.364;-1.224;2023-04-16T02:23:14;9.82;;;6.05;;
70543;SDS011;58097;48.364;-1.224;2023-04-16T02:25:44;10.05;;;5.57;;
70543;SDS011;58097;48.364;-1.224;2023-04-16T02:28:11;7.70;;;5.35;;
70543;SDS011;58097;48.364;-1.224;2023-04-16T02:30:37;6.90;;;5.82;;
70543;SDS011;58097;48.364;-1.224;2023-04-16T02:33:04;12.43;;;5.75;;
70543;SDS011;58097;48.364;-1.224;2023-04-16T02:35:31;10.32;;;6.03;;
70543;SDS011;58097;48.364;-1.224;2023-04-16T02:37:57;8.82;;;5.97;;
70543;SDS011;58097;48.364;-1.224;2023-04-16T02:40:23;13.23;;;6.15;;
70543;SDS011;58097;48.364;-1.224;2023-04-16T02:42:48;9.80;;;6.22;;
70543;SDS011;58097;48.364;-1.224;2023-04-16T02:45:14;9.73;;;6.72;;
70543;SDS011;58097;48.364;-1.224;2023-04-16T02:47:40;16.45;;;8.15;;
70543;SDS011;58097;48.364;-1.224;2023-04-16T02:50:05;9.88;;;7.18;;
70543;SDS011;58097;48.364;-1.224;2023-04-16T02:52:31;12.30;;;6.70;;
70543;SDS011;58097;48.364;-1.224;2023-04-16T02:54:57;9.10;;;5.38;;
70543;SDS011;58097;48.364;-1.224;2023-04-16T02:57:23;12.00;;;5.78;;
70543;SDS011;58097;48.364;-1.224;2023-04-16T02:59:48;8.68;;;5.90;;
70543;SDS011;58097;48.364;-1.224;2023-04-16T03:02:13;6.55;;;5.68;;
70543;SDS011;58097;48.364;-1.224;2023-04-16T03:04:40;10.48;;;6.07;;
70543;SDS011;58097;48.364;-1.224;2023-04-16T03:07:05;8.80;;;5.80;;
70543;SDS011;58097;48.364;-1.224;2023-04-16T03:09:30;12.85;;;6.93;;
70543;SDS011;58097;48.364;-1.224;2023-04-16T03:11:56;11.80;;;5.78;;
70543;SDS011;58097;48.364;-1.224;2023-04-16T03:14:21;8.38;;;5.47;;
70543;SDS011;58097;48.364;-1.224;2023-04-16T03:16:46;11.45;;;6.35;;
70543;SDS011;58097;48.364;-1.224;2023-04-16T03:19:12;14.32;;;7.57;;
70543;SDS011;58097;48.364;-1.224;2023-04-16T03:21:37;9.43;;;7.13;;
70543;SDS011;58097;48.364;-1.224;2023-04-16T03:24:02;12.77;;;7.25;;
70543;SDS011;58097;48.364;-1.224;2023-04-16T03:26:28;11.60;;;5.97;;
70543;SDS011;58097;48.364;-1.224;2023-04-16T03:28:53;8.38;;;6.03;;
70543;SDS011;58097;48.364;-1.224;2023-04-16T03:31:18;7.97;;;6.03;;
70543;SDS011;58097;48.364;-1.224;2023-04-16T03:33:44;12.77;;;7.13;;
70543;SDS011;58097;48.364;-1.224;2023-04-16T03:36:09;11.05;;;7.78;;
70543;SDS011;58097;48.364;-1.224;2023-04-16T03:38:35;13.65;;;7.43;;
70543;SDS011;58097;48.364;-1.224;2023-04-16T03:41:00;14.48;;;7.38;;
70543;SDS011;58097;48.364;-1.224;2023-04-16T03:43:25;10.18;;;6.78;;
70543;SDS011;58097;48.364;-1.224;2023-04-16T03:45:51;12.57;;;8.40;;
70543;SDS011;58097;48.364;-1.224;2023-04-16T03:48:16;10.95;;;7.53;;
70543;SDS011;58097;48.364;-1.224;2023-04-16T03:50:45;11.02;;;7.82;;
70543;SDS011;58097;48.364;-1.224;2023-04-16T03:53:11;13.93;;;8.95;;
70543;SDS011;58097;48.364;-1.224;2023-04-16T03:55:37;10.75;;;7.55;;
70543;SDS011;58097;48.364;-1.224;2023-04-16T03:58:02;10.30;;;7.65;;
70543;SDS011;58097;48.364;-1.224;2023-04-16T04:00:28;11.13;;;8.40;;
70543;SDS011;58097;48.364;-1.224;2023-04-16T04:02:54;10.90;;;7.90;;
70543;SDS011;58097;48.364;-1.224;2023-04-16T04:05:20;9.88;;;7.57;;
70543;SDS011;58097;48.364;-1.224;2023-04-16T04:07:45;9.23;;;8.02;;
70543;SDS011;58097;48.364;-1.224;2023-04-16T04:10:10;9.15;;;7.03;;
70543;SDS011;58097;48.364;-1.224;2023-04-16T04:12:36;9.93;;;7.88;;
70543;SDS011;58097;48.364;-1.224;2023-04-16T04:15:01;12.75;;;8.27;;
70543;SDS011;58097;48.364;-1.224;2023-04-16T04:17:26;13.45;;;8.73;;
70543;SDS011;58097;48.364;-1.224;2023-04-16T04:19:52;12.30;;;8.15;;
70543;SDS011;58097;48.364;-1.224;2023-04-16T04:22:17;13.45;;;8.13;;
70543;SDS011;58097;48.364;-1.224;2023-04-16T04:24:43;9.90;;;8.25;;
70543;SDS011;58097;48.364;-1.224;2023-04-16T04:27:08;14.70;;;9.20;;
70543;SDS011;58097;48.364;-1.224;2023-04-16T04:29:34;12.95;;;9.10;;
70543;SDS011;58097;48.364;-1.224;2023-04-16T04:31:59;14.32;;;9.38;;
70543;SDS011;58097;48.364;-1.224;2023-04-16T04:34:25;9.18;;;7.10;;
70543;SDS011;58097;48.364;-1.224;2023-04-16T04:36:50;13.23;;;8.02;;
70543;SDS011;58097;48.364;-1.224;2023-04-16T04:39:16;12.90;;;8.38;;
70543;SDS011;58097;48.364;-1.224;2023-04-16T04:41:41;11.20;;;8.00;;
70543;SDS011;58097;48.364;-1.224;2023-04-16T04:44:06;8.40;;;6.63;;
70543;SDS011;58097;48.364;-1.224;2023-04-16T04:46:32;10.75;;;7.15;;
70543;SDS011;58097;48.364;-1.224;2023-04-16T04:48:57;10.35;;;7.60;;
70543;SDS011;58097;48.364;-1.224;2023-04-16T04:51:23;9.38;;;7.60;;
70543;SDS011;58097;48.364;-1.224;2023-04-16T04:53:48;12.95;;;8.05;;
70543;SDS011;58097;48.364;-1.224;2023-04-16T04:56:13;10.90;;;8.45;;
70543;SDS011;58097;48.364;-1.224;2023-04-16T04:58:39;11.77;;;7.43;;
70543;SDS011;58097;48.364;-1.224;2023-04-16T05:01:05;11.50;;;7.95;;
70543;SDS011;58097;48.364;-1.224;2023-04-16T05:03:30;11.43;;;8.38;;
70543;SDS011;58097;48.364;-1.224;2023-04-16T05:05:56;12.40;;;8.32;;
70543;SDS011;58097;48.364;-1.224;2023-04-16T05:08:21;11.05;;;8.10;;
70543;SDS011;58097;48.364;-1.224;2023-04-16T05:10:46;9.57;;;7.63;;
70543;SDS011;58097;48.364;-1.224;2023-04-16T05:13:12;11.48;;;7.50;;
70543;SDS011;58097;48.364;-1.224;2023-04-16T05:15:37;11.57;;;8.13;;
70543;SDS011;58097;48.364;-1.224;2023-04-16T05:18:02;11.18;;;7.75;;
70543;SDS011;58097;48.364;-1.224;2023-04-16T05:20:28;17.80;;;9.63;;
70543;SDS011;58097;48.364;-1.224;2023-04-16T05:22:53;14.82;;;9.32;;
70543;SDS011;58097;48.364;-1.224;2023-04-16T05:25:19;11.13;;;8.30;;
70543;SDS011;58097;48.364;-1.224;2023-04-16T05:27:45;12.07;;;8.30;;
70543;SDS011;58097;48.364;-1.224;2023-04-16T05:30:10;11.05;;;8.40;;
70543;SDS011;58097;48.364;-1.224;2023-04-16T05:32:37;16.13;;;9.52;;
70543;SDS011;58097;48.364;-1.224;2023-04-16T05:35:03;13.15;;;7.93;;
70543;SDS011;58097;48.364;-1.224;2023-04-16T05:37:29;10.48;;;7.60;;
70543;SDS011;58097;48.364;-1.224;2023-04-16T05:39:54;12.88;;;8.00;;
70543;SDS011;58097;48.364;-1.224;2023-04-16T05:42:20;11.85;;;8.50;;
70543;SDS011;58097;48.364;-1.224;2023-04-16T05:44:45;13.68;;;8.57;;
70543;SDS011;58097;48.364;-1.224;2023-04-16T05:47:10;17.80;;;8.27;;
70543;SDS011;58097;48.364;-1.224;2023-04-16T05:49:36;11.30;;;8.93;;
70543;SDS011;58097;48.364;-1.224;2023-04-16T05:52:02;11.48;;;8.45;;
70543;SDS011;58097;48.364;-1.224;2023-04-16T05:54:28;12.15;;;8.95;;
70543;SDS011;58097;48.364;-1.224;2023-04-16T05:56:53;11.70;;;8.55;;
70543;SDS011;58097;48.364;-1.224;2023-04-16T05:59:19;13.93;;;9.57;;
70543;SDS011;58097;48.364;-1.224;2023-04-16T06:01:44;19.17;;;9.35;;
70543;SDS011;58097;48.364;-1.224;2023-04-16T06:04:09;12.80;;;8.57;;
70543;SDS011;58097;48.364;-1.224;2023-04-16T06:06:35;12.55;;;7.90;;
70543;SDS011;58097;48.364;-1.224;2023-04-16T06:09:01;13.10;;;9.48;;
70543;SDS011;58097;48.364;-1.224;2023-04-16T06:11:28;13.05;;;8.35;;
70543;SDS011;58097;48.364;-1.224;2023-04-16T06:13:53;12.48;;;8.38;;
70543;SDS011;58097;48.364;-1.224;2023-04-16T06:16:19;13.55;;;8.77;;
70543;SDS011;58097;48.364;-1.224;2023-04-16T06:18:44;11.27;;;7.97;;
70543;SDS011;58097;48.364;-1.224;2023-04-16T06:21:10;11.07;;;8.13;;
70543;SDS011;58097;48.364;-1.224;2023-04-16T06:23:35;14.80;;;8.07;;
70543;SDS011;58097;48.364;-1.224;2023-04-16T06:26:00;10.77;;;8.02;;
70543;SDS011;58097;48.364;-1.224;2023-04-16T06:28:26;17.75;;;7.85;;
70543;SDS011;58097;48.364;-1.224;2023-04-16T06:30:51;14.02;;;9.00;;
70543;SDS011;58097;48.364;-1.224;2023-04-16T06:33:18;14.50;;;9.23;;
70543;SDS011;58097;48.364;-1.224;2023-04-16T06:35:43;10.93;;;8.20;;
70543;SDS011;58097;48.364;-1.224;2023-04-16T06:38:08;11.32;;;8.88;;
70543;SDS011;58097;48.364;-1.224;2023-04-16T06:40:34;13.98;;;9.90;;
70543;SDS011;58097;48.364;-1.224;2023-04-16T06:43:01;12.77;;;9.13;;
70543;SDS011;58097;48.364;-1.224;2023-04-16T06:45:27;13.38;;;9.43;;
70543;SDS011;58097;48.364;-1.224;2023-04-16T06:47:52;15.40;;;9.77;;
70543;SDS011;58097;48.364;-1.224;2023-04-16T06:50:17;16.88;;;9.95;;
70543;SDS011;58097;48.364;-1.224;2023-04-16T06:52:43;10.85;;;8.55;;
70543;SDS011;58097;48.364;-1.224;2023-04-16T06:55:09;12.93;;;8.35;;
70543;SDS011;58097;48.364;-1.224;2023-04-16T06:57:35;13.82;;;9.27;;
70543;SDS011;58097;48.364;-1.224;2023-04-16T07:00:00;17.00;;;9.38;;
70543;SDS011;58097;48.364;-1.224;2023-04-16T07:02:27;15.48;;;9.68;;
70543;SDS011;58097;48.364;-1.224;2023-04-16T07:04:52;17.25;;;9.65;;
70543;SDS011;58097;48.364;-1.224;2023-04-16T07:07:17;18.67;;;10.93;;
70543;SDS011;58097;48.364;-1.224;2023-04-16T07:09:43;12.80;;;9.02;;
70543;SDS011;58097;48.364;-1.224;2023-04-16T07:12:08;13.18;;;9.50;;
70543;SDS011;58097;48.364;-1.224;2023-04-16T07:14:33;13.65;;;9.30;;
70543;SDS011;58097;48.364;-1.224;2023-04-16T07:16:59;14.10;;;9.68;;
70543;SDS011;58097;48.364;-1.224;2023-04-16T07:19:24;15.13;;;10.35;;
70543;SDS011;58097;48.364;-1.224;2023-04-16T07:21:54;11.98;;;9.15;;
70543;SDS011;58097;48.364;-1.224;2023-04-16T07:24:19;12.48;;;8.02;;
70543;SDS011;58097;48.364;-1.224;2023-04-16T07:26:45;11.63;;;8.32;;
70543;SDS011;58097;48.364;-1.224;2023-04-16T07:29:10;13.73;;;9.68;;
70543;SDS011;58097;48.364;-1.224;2023-04-16T07:31:35;16.58;;;9.93;;
70543;SDS011;58097;48.364;-1.224;2023-04-16T07:34:01;15.75;;;9.13;;
70543;SDS011;58097;48.364;-1.224;2023-04-16T07:36:26;12.60;;;8.70;;
70543;SDS011;58097;48.364;-1.224;2023-04-16T07:38:52;12.35;;;8.65;;
70543;SDS011;58097;48.364;-1.224;2023-04-16T07:41:17;15.45;;;9.48;;
70543;SDS011;58097;48.364;-1.224;2023-04-16T07:43:43;12.38;;;9.00;;
70543;SDS011;58097;48.364;-1.224;2023-04-16T07:46:08;13.45;;;9.73;;
70543;SDS011;58097;48.364;-1.224;2023-04-16T07:48:33;17.33;;;8.80;;
70543;SDS011;58097;48.364;-1.224;2023-04-16T07:50:59;15.75;;;8.63;;
70543;SDS011;58097;48.364;-1.224;2023-04-16T07:53:24;14.02;;;7.32;;
70543;SDS011;58097;48.364;-1.224;2023-04-16T07:55:50;9.38;;;7.13;;
70543;SDS011;58097;48.364;-1.224;2023-04-16T07:58:15;8.85;;;6.82;;
70543;SDS011;58097;48.364;-1.224;2023-04-16T08:00:40;12.63;;;8.38;;
70543;SDS011;58097;48.364;-1.224;2023-04-16T08:03:07;10.93;;;6.95;;
70543;SDS011;58097;48.364;-1.224;2023-04-16T08:05:32;9.15;;;7.03;;
70543;SDS011;58097;48.364;-1.224;2023-04-16T08:07:58;10.40;;;6.25;;
70543;SDS011;58097;48.364;-1.224;2023-04-16T08:10:23;11.13;;;6.82;;
70543;SDS011;58097;48.364;-1.224;2023-04-16T08:12:48;10.60;;;7.57;;
70543;SDS011;58097;48.364;-1.224;2023-04-16T08:15:14;7.90;;;6.13;;
70543;SDS011;58097;48.364;-1.224;2023-04-16T08:17:39;8.32;;;6.10;;
70543;SDS011;58097;48.364;-1.224;2023-04-16T08:20:05;7.72;;;5.47;;
70543;SDS011;58097;48.364;-1.224;2023-04-16T08:22:31;9.35;;;5.47;;
70543;SDS011;58097;48.364;-1.224;2023-04-16T08:24:57;7.75;;;5.13;;
70543;SDS011;58097;48.364;-1.224;2023-04-16T08:27:22;7.40;;;5.50;;
70543;SDS011;58097;48.364;-1.224;2023-04-16T08:29:48;13.52;;;4.47;;
70543;SDS011;58097;48.364;-1.224;2023-04-16T08:32:13;6.63;;;5.22;;
70543;SDS011;58097;48.364;-1.224;2023-04-16T08:34:38;9.48;;;5.20;;
70543;SDS011;58097;48.364;-1.224;2023-04-16T08:37:04;7.20;;;4.32;;
70543;SDS011;58097;48.364;-1.224;2023-04-16T08:39:29;6.00;;;5.07;;
70543;SDS011;58097;48.364;-1.224;2023-04-16T08:41:55;7.03;;;5.28;;
70543;SDS011;58097;48.364;-1.224;2023-04-16T08:44:25;6.82;;;4.88;;
70543;SDS011;58097;48.364;-1.224;2023-04-16T08:46:52;9.60;;;5.15;;
70543;SDS011;58097;48.364;-1.224;2023-04-16T08:49:23;6.65;;;4.72;;
70543;SDS011;58097;48.364;-1.224;2023-04-16T08:51:50;6.80;;;4.47;;
70543;SDS011;58097;48.364;-1.224;2023-04-16T08:54:23;5.60;;;4.43;;
70543;SDS011;58097;48.364;-1.224;2023-04-16T08:57:03;9.23;;;4.82;;
70543;SDS011;58097;48.364;-1.224;2023-04-16T08:59:30;6.18;;;4.32;;
70543;SDS011;58097;48.364;-1.224;2023-04-16T09:01:57;7.28;;;4.35;;
70543;SDS011;58097;48.364;-1.224;2023-04-16T09:04:26;5.07;;;3.85;;
70543;SDS011;58097;48.364;-1.224;2023-04-16T09:06:53;7.72;;;3.22;;
70543;SDS011;58097;48.364;-1.224;2023-04-16T09:09:22;4.53;;;3.83;;
70543;SDS011;58097;48.364;-1.224;2023-04-16T09:11:52;9.10;;;4.15;;
70543;SDS011;58097;48.364;-1.224;2023-04-16T09:14:18;11.52;;;4.22;;
70543;SDS011;58097;48.364;-1.224;2023-04-16T09:16:44;6.93;;;3.72;;
70543;SDS011;58097;48.364;-1.224;2023-04-16T09:19:12;5.55;;;3.60;;
70543;SDS011;58097;48.364;-1.224;2023-04-16T09:21:39;6.40;;;3.33;;
70543;SDS011;58097;48.364;-1.224;2023-04-16T09:24:06;6.80;;;4.30;;
70543;SDS011;58097;48.364;-1.224;2023-04-16T09:26:33;4.53;;;3.33;;
70543;SDS011;58097;48.364;-1.224;2023-04-16T09:28:58;6.85;;;3.85;;
70543;SDS011;58097;48.364;-1.224;2023-04-16T09:31:23;6.05;;;3.20;;
70543;SDS011;58097;48.364;-1.224;2023-04-16T09:36:26;4.07;;;2.88;;
70543;SDS011;58097;48.364;-1.224;2023-04-16T09:38:53;5.43;;;3.40;;
70543;SDS011;58097;48.364;-1.224;2023-04-16T09:41:19;8.07;;;2.88;;
70543;SDS011;58097;48.364;-1.224;2023-04-16T09:44:00;6.18;;;3.53;;
70543;SDS011;58097;48.364;-1.224;2023-04-16T09:48:53;8.82;;;3.50;;
70543;SDS011;58097;48.364;-1.224;2023-04-16T09:51:18;5.00;;;4.10;;
70543;SDS011;58097;48.364;-1.224;2023-04-16T09:53:44;6.45;;;3.40;;
70543;SDS011;58097;48.364;-1.224;2023-04-16T09:56:10;6.53;;;2.85;;
70543;SDS011;58097;48.364;-1.224;2023-04-16T09:58:36;6.03;;;2.47;;
70543;SDS011;58097;48.364;-1.224;2023-04-16T10:01:09;13.23;;;4.03;;
70543;SDS011;58097;48.364;-1.224;2023-04-16T10:03:36;8.05;;;3.50;;
70543;SDS011;58097;48.364;-1.224;2023-04-16T10:06:15;4.60;;;3.50;;
70543;SDS011;58097;48.364;-1.224;2023-04-16T10:08:49;4.25;;;2.85;;
70543;SDS011;58097;48.364;-1.224;2023-04-16T10:11:17;4.57;;;2.72;;
70543;SDS011;58097;48.364;-1.224;2023-04-16T10:13:44;4.82;;;2.72;;
70543;SDS011;58097;48.364;-1.224;2023-04-16T10:16:09;6.97;;;2.92;;
70543;SDS011;58097;48.364;-1.224;2023-04-16T10:18:36;9.32;;;3.83;;
70543;SDS011;58097;48.364;-1.224;2023-04-16T10:21:03;5.55;;;2.88;;
70543;SDS011;58097;48.364;-1.224;2023-04-16T10:23:28;7.63;;;3.15;;
70543;SDS011;58097;48.364;-1.224;2023-04-16T10:25:54;9.90;;;5.13;;
70543;SDS011;58097;48.364;-1.224;2023-04-16T10:28:21;7.47;;;3.45;;
70543;SDS011;58097;48.364;-1.224;2023-04-16T10:30:48;5.25;;;3.35;;
70543;SDS011;58097;48.364;-1.224;2023-04-16T10:33:21;4.47;;;2.90;;
70543;SDS011;58097;48.364;-1.224;2023-04-16T10:35:51;6.65;;;3.42;;
70543;SDS011;58097;48.364;-1.224;2023-04-16T10:38:23;7.03;;;4.07;;
70543;SDS011;58097;48.364;-1.224;2023-04-16T10:40:56;7.35;;;4.05;;
70543;SDS011;58097;48.364;-1.224;2023-04-16T10:43:23;10.60;;;3.63;;
70543;SDS011;58097;48.364;-1.224;2023-04-16T10:45:49;7.75;;;3.38;;
70543;SDS011;58097;48.364;-1.224;2023-04-16T10:48:17;4.90;;;3.15;;
70543;SDS011;58097;48.364;-1.224;2023-04-16T10:50:50;7.63;;;3.60;;
70543;SDS011;58097;48.364;-1.224;2023-04-16T10:53:21;7.97;;;3.88;;
70543;SDS011;58097;48.364;-1.224;2023-04-16T10:58:32;4.93;;;3.50;;
70543;SDS011;58097;48.364;-1.224;2023-04-16T11:00:59;8.27;;;3.60;;
70543;SDS011;58097;48.364;-1.224;2023-04-16T11:03:29;5.90;;;3.42;;
70543;SDS011;58097;48.364;-1.224;2023-04-16T11:08:38;8.10;;;4.28;;
70543;SDS011;58097;48.364;-1.224;2023-04-16T11:11:05;7.30;;;3.95;;
70543;SDS011;58097;48.364;-1.224;2023-04-16T11:13:30;4.63;;;3.50;;
70543;SDS011;58097;48.364;-1.224;2023-04-16T11:15:56;7.80;;;3.67;;
70543;SDS011;58097;48.364;-1.224;2023-04-16T11:18:22;6.70;;;4.72;;
70543;SDS011;58097;48.364;-1.224;2023-04-16T11:20:49;6.70;;;3.83;;
70543;SDS011;58097;48.364;-1.224;2023-04-16T11:23:15;10.50;;;4.75;;
70543;SDS011;58097;48.364;-1.224;2023-04-16T11:25:40;8.55;;;4.30;;
70543;SDS011;58097;48.364;-1.224;2023-04-16T11:28:06;9.85;;;3.95;;
70543;SDS011;58097;48.364;-1.224;2023-04-16T11:30:32;5.45;;;4.00;;
70543;SDS011;58097;48.364;-1.224;2023-04-16T11:33:06;6.40;;;4.15;;
70543;SDS011;58097;48.364;-1.224;2023-04-16T11:35:33;7.10;;;4.47;;
70543;SDS011;58097;48.364;-1.224;2023-04-16T11:37:59;10.30;;;3.33;;
70543;SDS011;58097;48.364;-1.224;2023-04-16T11:40:24;6.40;;;4.10;;
70543;SDS011;58097;48.364;-1.224;2023-04-16T11:42:53;7.32;;;4.07;;
70543;SDS011;58097;48.364;-1.224;2023-04-16T11:45:19;4.00;;;3.20;;
70543;SDS011;58097;48.364;-1.224;2023-04-16T11:47:48;6.03;;;3.47;;
70543;SDS011;58097;48.364;-1.224;2023-04-16T11:52:52;6.60;;;3.80;;
70543;SDS011;58097;48.364;-1.224;2023-04-16T11:55:21;11.18;;;4.13;;
70543;SDS011;58097;48.364;-1.224;2023-04-16T11:57:48;5.15;;;3.83;;
70543;SDS011;58097;48.364;-1.224;2023-04-16T12:00:13;6.78;;;3.55;;
70543;SDS011;58097;48.364;-1.224;2023-04-16T12:05:06;7.38;;;3.88;;
70543;SDS011;58097;48.364;-1.224;2023-04-16T12:07:51;7.22;;;3.67;;
70543;SDS011;58097;48.364;-1.224;2023-04-16T12:10:16;7.30;;;3.30;;
70543;SDS011;58097;48.364;-1.224;2023-04-16T12:12:42;5.85;;;4.07;;
70543;SDS011;58097;48.364;-1.224;2023-04-16T12:15:07;6.78;;;3.33;;
70543;SDS011;58097;48.364;-1.224;2023-04-16T12:17:33;4.03;;;3.00;;
70543;SDS011;58097;48.364;-1.224;2023-04-16T12:20:01;5.50;;;3.00;;
70543;SDS011;58097;48.364;-1.224;2023-04-16T12:22:30;8.73;;;3.70;;
70543;SDS011;58097;48.364;-1.224;2023-04-16T12:24:59;8.27;;;4.07;;
70543;SDS011;58097;48.364;-1.224;2023-04-16T12:27:39;21.67;;;8.70;;
70543;SDS011;58097;48.364;-1.224;2023-04-16T12:30:09;6.40;;;3.88;;
70543;SDS011;58097;48.364;-1.224;2023-04-16T12:32:35;7.68;;;3.88;;
70543;SDS011;58097;48.364;-1.224;2023-04-16T12:35:00;6.13;;;4.00;;
70543;SDS011;58097;48.364;-1.224;2023-04-16T12:37:26;5.38;;;3.42;;
70543;SDS011;58097;48.364;-1.224;2023-04-16T12:39:52;7.15;;;3.45;;
70543;SDS011;58097;48.364;-1.224;2023-04-16T12:42:17;7.07;;;3.53;;
70543;SDS011;58097;48.364;-1.224;2023-04-16T12:44:43;7.22;;;3.03;;
70543;SDS011;58097;48.364;-1.224;2023-04-16T12:47:08;4.35;;;2.95;;
70543;SDS011;58097;48.364;-1.224;2023-04-16T12:49:34;8.73;;;3.08;;
70543;SDS011;58097;48.364;-1.224;2023-04-16T12:52:01;7.32;;;3.70;;
70543;SDS011;58097;48.364;-1.224;2023-04-16T12:54:27;4.65;;;3.40;;
70543;SDS011;58097;48.364;-1.224;2023-04-16T12:56:55;4.25;;;3.05;;
70543;SDS011;58097;48.364;-1.224;2023-04-16T12:59:20;7.35;;;3.75;;
70543;SDS011;58097;48.364;-1.224;2023-04-16T13:01:45;8.25;;;3.30;;
70543;SDS011;58097;48.364;-1.224;2023-04-16T13:04:11;5.65;;;3.03;;
70543;SDS011;58097;48.364;-1.224;2023-04-16T13:06:36;6.00;;;3.15;;
70543;SDS011;58097;48.364;-1.224;2023-04-16T13:09:02;6.43;;;3.22;;
70543;SDS011;58097;48.364;-1.224;2023-04-16T13:11:28;6.80;;;2.70;;
70543;SDS011;58097;48.364;-1.224;2023-04-16T13:13:54;6.38;;;2.75;;
70543;SDS011;58097;48.364;-1.224;2023-04-16T13:16:19;5.57;;;2.80;;
70543;SDS011;58097;48.364;-1.224;2023-04-16T13:18:45;5.70;;;2.85;;
70543;SDS011;58097;48.364;-1.224;2023-04-16T13:21:10;3.95;;;3.17;;
70543;SDS011;58097;48.364;-1.224;2023-04-16T13:23:36;8.43;;;3.05;;
70543;SDS011;58097;48.364;-1.224;2023-04-16T13:26:01;4.05;;;2.40;;
70543;SDS011;58097;48.364;-1.224;2023-04-16T13:28:27;5.63;;;3.53;;
70543;SDS011;58097;48.364;-1.224;2023-04-16T13:30:52;4.55;;;2.63;;
70543;SDS011;58097;48.364;-1.224;2023-04-16T13:33:18;6.80;;;2.63;;
70543;SDS011;58097;48.364;-1.224;2023-04-16T13:35:45;4.90;;;2.78;;
70543;SDS011;58097;48.364;-1.224;2023-04-16T13:38:10;4.45;;;2.13;;
70543;SDS011;58097;48.364;-1.224;2023-04-16T13:40:36;4.80;;;3.00;;
70543;SDS011;58097;48.364;-1.224;2023-04-16T13:43:01;6.07;;;2.60;;
70543;SDS011;58097;48.364;-1.224;2023-04-16T13:45:27;7.57;;;3.00;;
70543;SDS011;58097;48.364;-1.224;2023-04-16T13:47:53;7.60;;;2.90;;
70543;SDS011;58097;48.364;-1.224;2023-04-16T13:50:18;5.18;;;2.63;;
70543;SDS011;58097;48.364;-1.224;2023-04-16T13:52:44;5.28;;;3.10;;
70543;SDS011;58097;48.364;-1.224;2023-04-16T13:55:09;4.80;;;2.63;;
70543;SDS011;58097;48.364;-1.224;2023-04-16T13:57:37;7.97;;;2.88;;
70543;SDS011;58097;48.364;-1.224;2023-04-16T14:00:03;5.55;;;2.53;;
70543;SDS011;58097;48.364;-1.224;2023-04-16T14:02:29;6.57;;;2.22;;
70543;SDS011;58097;48.364;-1.224;2023-04-16T14:04:54;5.18;;;2.38;;
70543;SDS011;58097;48.364;-1.224;2023-04-16T14:07:19;5.70;;;2.38;;
70543;SDS011;58097;48.364;-1.224;2023-04-16T14:09:49;3.58;;;2.30;;
70543;SDS011;58097;48.364;-1.224;2023-04-16T14:12:14;2.80;;;1.77;;
70543;SDS011;58097;48.364;-1.224;2023-04-16T14:14:40;7.85;;;2.70;;
70543;SDS011;58097;48.364;-1.224;2023-04-16T14:17:06;6.00;;;2.17;;
70543;SDS011;58097;48.364;-1.224;2023-04-16T14:19:31;3.55;;;2.10;;
70543;SDS011;58097;48.364;-1.224;2023-04-16T14:21:56;9.43;;;2.20;;
70543;SDS011;58097;48.364;-1.224;2023-04-16T14:24:22;3.58;;;2.30;;
70543;SDS011;58097;48.364;-1.224;2023-04-16T14:26:47;6.65;;;2.10;;
70543;SDS011;58097;48.364;-1.224;2023-04-16T14:29:12;5.38;;;2.22;;
70543;SDS011;58097;48.364;-1.224;2023-04-16T14:31:38;3.70;;;2.33;;
70543;SDS011;58097;48.364;-1.224;2023-04-16T14:34:03;5.07;;;2.40;;
70543;SDS011;58097;48.364;-1.224;2023-04-16T14:36:29;7.35;;;2.97;;